sensor_id;sensor_type;location;lat;lon;timestamp;P1;durP1;ratioP1;P2;durP2;ratioP2
29958;SDS011;16815;51.100;6.516;2023-04-03T00:00:23;5.53;;;5.03;;
29958;SDS011;16815;51.100;6.516;2023-04-03T00:02:49;5.57;;;5.07;;
29958;SDS011;16815;51.100;6.516;2023-04-03T00:05:15;8.23;;;5.83;;
29958;SDS011;16815;51.100;6.516;2023-04-03T00:07:41;6.27;;;5.60;;
29958;SDS011;16815;51.100;6.516;2023-04-03T00:10:07;6.37;;;5.60;;
29958;SDS011;16815;51.100;6.516;2023-04-03T00:12:33;7.57;;;5.77;;
29958;SDS011;16815;51.100;6.516;2023-04-03T00:14:59;6.17;;;5.03;;
29958;SDS011;16815;51.100;6.516;2023-04-03T00:17:25;7.70;;;5.87;;
29958;SDS011;16815;51.100;6.516;2023-04-03T00:19:51;6.77;;;5.27;;
29958;SDS011;16815;51.100;6.516;2023-04-03T00:22:17;6.10;;;5.50;;
29958;SDS011;16815;51.100;6.516;2023-04-03T00:24:43;7.67;;;5.23;;
29958;SDS011;16815;51.100;6.516;2023-04-03T00:27:08;6.20;;;5.60;;
29958;SDS011;16815;51.100;6.516;2023-04-03T00:29:36;6.20;;;5.60;;
29958;SDS011;16815;51.100;6.516;2023-04-03T00:32:01;6.63;;;6.03;;
29958;SDS011;16815;51.100;6.516;2023-04-03T00:34:28;6.30;;;5.70;;
29958;SDS011;16815;51.100;6.516;2023-04-03T00:36:54;7.43;;;5.57;;
29958;SDS011;16815;51.100;6.516;2023-04-03T00:39:20;6.77;;;6.13;;
29958;SDS011;16815;51.100;6.516;2023-04-03T00:41:45;7.03;;;6.33;;
29958;SDS011;16815;51.100;6.516;2023-04-03T00:44:22;6.47;;;5.77;;
29958;SDS011;16815;51.100;6.516;2023-04-03T00:46:48;6.63;;;5.93;;
29958;SDS011;16815;51.100;6.516;2023-04-03T00:49:14;7.77;;;6.53;;
29958;SDS011;16815;51.100;6.516;2023-04-03T00:51:40;6.50;;;5.90;;
29958;SDS011;16815;51.100;6.516;2023-04-03T00:54:06;6.13;;;5.53;;
29958;SDS011;16815;51.100;6.516;2023-04-03T00:56:33;6.63;;;5.70;;
29958;SDS011;16815;51.100;6.516;2023-04-03T00:59:04;6.40;;;5.80;;
29958;SDS011;16815;51.100;6.516;2023-04-03T01:01:30;7.20;;;6.27;;
29958;SDS011;16815;51.100;6.516;2023-04-03T01:03:58;6.20;;;5.60;;
29958;SDS011;16815;51.100;6.516;2023-04-03T01:06:26;6.50;;;5.90;;
29958;SDS011;16815;51.100;6.516;2023-04-03T01:08:52;7.50;;;6.73;;
29958;SDS011;16815;51.100;6.516;2023-04-03T01:11:18;6.30;;;5.70;;
29958;SDS011;16815;51.100;6.516;2023-04-03T01:13:46;7.00;;;6.30;;
29958;SDS011;16815;51.100;6.516;2023-04-03T01:16:12;6.70;;;6.10;;
29958;SDS011;16815;51.100;6.516;2023-04-03T01:18:38;7.33;;;6.23;;
29958;SDS011;16815;51.100;6.516;2023-04-03T01:23:41;7.20;;;6.37;;
29958;SDS011;16815;51.100;6.516;2023-04-03T01:26:09;7.37;;;6.67;;
29958;SDS011;16815;51.100;6.516;2023-04-03T01:28:36;6.80;;;6.20;;
29958;SDS011;16815;51.100;6.516;2023-04-03T01:33:28;8.33;;;6.53;;
29958;SDS011;16815;51.100;6.516;2023-04-03T01:35:55;6.97;;;6.00;;
29958;SDS011;16815;51.100;6.516;2023-04-03T01:38:21;6.63;;;5.93;;
29958;SDS011;16815;51.100;6.516;2023-04-03T01:40:46;7.77;;;6.60;;
29958;SDS011;16815;51.100;6.516;2023-04-03T01:43:12;6.97;;;6.27;;
29958;SDS011;16815;51.100;6.516;2023-04-03T01:45:38;6.97;;;5.87;;
29958;SDS011;16815;51.100;6.516;2023-04-03T01:48:04;6.40;;;5.73;;
29958;SDS011;16815;51.100;6.516;2023-04-03T01:50:30;6.53;;;5.67;;
29958;SDS011;16815;51.100;6.516;2023-04-03T01:52:56;6.60;;;6.00;;
29958;SDS011;16815;51.100;6.516;2023-04-03T01:55:22;7.80;;;6.77;;
29958;SDS011;16815;51.100;6.516;2023-04-03T01:57:48;6.63;;;6.03;;
29958;SDS011;16815;51.100;6.516;2023-04-03T02:00:14;6.93;;;6.07;;
29958;SDS011;16815;51.100;6.516;2023-04-03T02:02:41;7.00;;;6.27;;
29958;SDS011;16815;51.100;6.516;2023-04-03T02:05:07;8.73;;;6.43;;
29958;SDS011;16815;51.100;6.516;2023-04-03T02:07:33;6.70;;;6.10;;
29958;SDS011;16815;51.100;6.516;2023-04-03T02:09:59;8.07;;;7.03;;
29958;SDS011;16815;51.100;6.516;2023-04-03T02:12:25;7.47;;;6.77;;
29958;SDS011;16815;51.100;6.516;2023-04-03T02:14:51;7.40;;;6.53;;
29958;SDS011;16815;51.100;6.516;2023-04-03T02:17:17;7.23;;;6.57;;
29958;SDS011;16815;51.100;6.516;2023-04-03T02:19:43;8.83;;;6.63;;
29958;SDS011;16815;51.100;6.516;2023-04-03T02:22:09;7.57;;;6.53;;
29958;SDS011;16815;51.100;6.516;2023-04-03T02:24:35;7.13;;;6.37;;
29958;SDS011;16815;51.100;6.516;2023-04-03T02:27:04;7.03;;;6.33;;
29958;SDS011;16815;51.100;6.516;2023-04-03T02:29:30;6.70;;;6.10;;
29958;SDS011;16815;51.100;6.516;2023-04-03T02:31:56;8.73;;;6.63;;
29958;SDS011;16815;51.100;6.516;2023-04-03T02:34:21;7.00;;;6.27;;
29958;SDS011;16815;51.100;6.516;2023-04-03T02:36:47;7.30;;;6.63;;
29958;SDS011;16815;51.100;6.516;2023-04-03T02:39:13;9.03;;;7.10;;
29958;SDS011;16815;51.100;6.516;2023-04-03T02:41:39;9.03;;;7.10;;
29958;SDS011;16815;51.100;6.516;2023-04-03T02:44:06;8.53;;;7.00;;
29958;SDS011;16815;51.100;6.516;2023-04-03T02:46:32;7.90;;;7.10;;
29958;SDS011;16815;51.100;6.516;2023-04-03T02:48:58;8.13;;;7.33;;
29958;SDS011;16815;51.100;6.516;2023-04-03T02:51:24;9.40;;;7.40;;
29958;SDS011;16815;51.100;6.516;2023-04-03T02:53:50;7.10;;;6.40;;
29958;SDS011;16815;51.100;6.516;2023-04-03T02:56:16;7.50;;;6.77;;
29958;SDS011;16815;51.100;6.516;2023-04-03T02:58:44;7.80;;;6.70;;
29958;SDS011;16815;51.100;6.516;2023-04-03T03:01:10;8.10;;;6.93;;
29958;SDS011;16815;51.100;6.516;2023-04-03T03:03:36;10.67;;;7.43;;
29958;SDS011;16815;51.100;6.516;2023-04-03T03:08:28;8.70;;;7.90;;
29958;SDS011;16815;51.100;6.516;2023-04-03T03:10:54;10.57;;;7.57;;
29958;SDS011;16815;51.100;6.516;2023-04-03T03:13:20;9.57;;;7.43;;
29958;SDS011;16815;51.100;6.516;2023-04-03T03:15:46;8.47;;;6.80;;
29958;SDS011;16815;51.100;6.516;2023-04-03T03:18:12;8.23;;;7.10;;
29958;SDS011;16815;51.100;6.516;2023-04-03T03:20:38;9.90;;;7.63;;
29958;SDS011;16815;51.100;6.516;2023-04-03T03:23:04;8.87;;;7.37;;
29958;SDS011;16815;51.100;6.516;2023-04-03T03:25:30;9.00;;;7.03;;
29958;SDS011;16815;51.100;6.516;2023-04-03T03:27:56;7.90;;;7.03;;
29958;SDS011;16815;51.100;6.516;2023-04-03T03:30:22;10.10;;;7.33;;
29958;SDS011;16815;51.100;6.516;2023-04-03T03:32:48;12.17;;;7.20;;
29958;SDS011;16815;51.100;6.516;2023-04-03T03:35:14;8.30;;;7.33;;
29958;SDS011;16815;51.100;6.516;2023-04-03T03:37:40;9.20;;;7.47;;
29958;SDS011;16815;51.100;6.516;2023-04-03T03:40:06;8.83;;;7.30;;
29958;SDS011;16815;51.100;6.516;2023-04-03T03:42:32;9.77;;;7.80;;
29958;SDS011;16815;51.100;6.516;2023-04-03T03:44:58;10.20;;;7.90;;
29958;SDS011;16815;51.100;6.516;2023-04-03T03:47:24;9.57;;;7.27;;
29958;SDS011;16815;51.100;6.516;2023-04-03T03:49:50;10.67;;;7.77;;
29958;SDS011;16815;51.100;6.516;2023-04-03T03:52:16;11.30;;;9.20;;
29958;SDS011;16815;51.100;6.516;2023-04-03T03:54:42;8.87;;;7.97;;
29958;SDS011;16815;51.100;6.516;2023-04-03T03:57:08;10.03;;;8.10;;
29958;SDS011;16815;51.100;6.516;2023-04-03T03:59:34;9.13;;;8.23;;
29958;SDS011;16815;51.100;6.516;2023-04-03T04:02:00;12.67;;;8.57;;
29958;SDS011;16815;51.100;6.516;2023-04-03T04:04:26;11.73;;;8.57;;
29958;SDS011;16815;51.100;6.516;2023-04-03T04:06:52;11.03;;;8.37;;
29958;SDS011;16815;51.100;6.516;2023-04-03T04:09:18;9.57;;;8.33;;
29958;SDS011;16815;51.100;6.516;2023-04-03T04:11:44;10.17;;;8.90;;
29958;SDS011;16815;51.100;6.516;2023-04-03T04:14:10;11.07;;;8.67;;
29958;SDS011;16815;51.100;6.516;2023-04-03T04:16:38;11.70;;;8.77;;
29958;SDS011;16815;51.100;6.516;2023-04-03T04:19:04;10.53;;;8.77;;
29958;SDS011;16815;51.100;6.516;2023-04-03T04:21:30;11.97;;;9.00;;
29958;SDS011;16815;51.100;6.516;2023-04-03T04:23:56;10.83;;;8.53;;
29958;SDS011;16815;51.100;6.516;2023-04-03T04:26:22;10.40;;;9.00;;
29958;SDS011;16815;51.100;6.516;2023-04-03T04:28:48;12.50;;;9.60;;
29958;SDS011;16815;51.100;6.516;2023-04-03T04:31:14;11.63;;;9.60;;
29958;SDS011;16815;51.100;6.516;2023-04-03T04:33:40;10.50;;;9.40;;
29958;SDS011;16815;51.100;6.516;2023-04-03T04:36:06;15.23;;;10.83;;
29958;SDS011;16815;51.100;6.516;2023-04-03T04:38:32;11.10;;;10.00;;
29958;SDS011;16815;51.100;6.516;2023-04-03T04:40:58;11.53;;;10.43;;
29958;SDS011;16815;51.100;6.516;2023-04-03T04:43:24;11.10;;;9.57;;
29958;SDS011;16815;51.100;6.516;2023-04-03T04:45:59;9.77;;;8.73;;
29958;SDS011;16815;51.100;6.516;2023-04-03T04:48:25;10.50;;;8.80;;
29958;SDS011;16815;51.100;6.516;2023-04-03T04:50:51;10.83;;;8.50;;
29958;SDS011;16815;51.100;6.516;2023-04-03T04:53:17;12.73;;;8.40;;
29958;SDS011;16815;51.100;6.516;2023-04-03T04:55:43;13.37;;;8.20;;
29958;SDS011;16815;51.100;6.516;2023-04-03T04:58:09;17.87;;;8.50;;
29958;SDS011;16815;51.100;6.516;2023-04-03T05:00:35;8.77;;;7.33;;
29958;SDS011;16815;51.100;6.516;2023-04-03T05:03:01;11.70;;;8.03;;
29958;SDS011;16815;51.100;6.516;2023-04-03T05:05:27;9.97;;;7.40;;
29958;SDS011;16815;51.100;6.516;2023-04-03T05:07:53;9.80;;;7.83;;
29958;SDS011;16815;51.100;6.516;2023-04-03T05:10:19;8.50;;;6.90;;
29958;SDS011;16815;51.100;6.516;2023-04-03T05:12:45;11.67;;;7.17;;
29958;SDS011;16815;51.100;6.516;2023-04-03T05:15:11;8.23;;;7.33;;
29958;SDS011;16815;51.100;6.516;2023-04-03T05:17:37;8.40;;;7.60;;
29958;SDS011;16815;51.100;6.516;2023-04-03T05:20:03;8.80;;;6.57;;
29958;SDS011;16815;51.100;6.516;2023-04-03T05:22:29;7.77;;;6.43;;
29958;SDS011;16815;51.100;6.516;2023-04-03T05:24:55;9.97;;;7.00;;
29958;SDS011;16815;51.100;6.516;2023-04-03T05:27:21;7.60;;;6.00;;
29958;SDS011;16815;51.100;6.516;2023-04-03T05:29:49;9.10;;;6.50;;
29958;SDS011;16815;51.100;6.516;2023-04-03T05:32:15;9.83;;;6.67;;
29958;SDS011;16815;51.100;6.516;2023-04-03T05:34:41;6.73;;;6.00;;
29958;SDS011;16815;51.100;6.516;2023-04-03T05:37:06;9.37;;;6.23;;
29958;SDS011;16815;51.100;6.516;2023-04-03T05:39:32;8.30;;;5.63;;
29958;SDS011;16815;51.100;6.516;2023-04-03T05:41:59;13.50;;;7.03;;
29958;SDS011;16815;51.100;6.516;2023-04-03T05:44:25;9.37;;;6.40;;
29958;SDS011;16815;51.100;6.516;2023-04-03T05:46:51;7.07;;;5.70;;
29958;SDS011;16815;51.100;6.516;2023-04-03T05:49:17;7.77;;;6.07;;
29958;SDS011;16815;51.100;6.516;2023-04-03T05:51:43;8.20;;;6.43;;
29958;SDS011;16815;51.100;6.516;2023-04-03T05:56:35;9.50;;;5.83;;
29958;SDS011;16815;51.100;6.516;2023-04-03T05:59:01;8.80;;;5.67;;
29958;SDS011;16815;51.100;6.516;2023-04-03T06:01:27;8.40;;;5.77;;
29958;SDS011;16815;51.100;6.516;2023-04-03T06:03:53;7.17;;;5.63;;
29958;SDS011;16815;51.100;6.516;2023-04-03T06:06:19;7.90;;;5.70;;
29958;SDS011;16815;51.100;6.516;2023-04-03T06:08:47;9.37;;;5.50;;
29958;SDS011;16815;51.100;6.516;2023-04-03T06:11:13;7.87;;;6.00;;
29958;SDS011;16815;51.100;6.516;2023-04-03T06:13:39;7.00;;;5.27;;
29958;SDS011;16815;51.100;6.516;2023-04-03T06:16:05;7.77;;;5.77;;
29958;SDS011;16815;51.100;6.516;2023-04-03T06:18:32;10.00;;;6.80;;
29958;SDS011;16815;51.100;6.516;2023-04-03T06:20:58;6.53;;;5.50;;
29958;SDS011;16815;51.100;6.516;2023-04-03T06:23:23;6.93;;;5.73;;
29958;SDS011;16815;51.100;6.516;2023-04-03T06:25:50;9.33;;;5.80;;
29958;SDS011;16815;51.100;6.516;2023-04-03T06:28:16;8.23;;;6.40;;
29958;SDS011;16815;51.100;6.516;2023-04-03T06:30:44;8.13;;;6.13;;
29958;SDS011;16815;51.100;6.516;2023-04-03T06:33:10;9.67;;;6.23;;
29958;SDS011;16815;51.100;6.516;2023-04-03T06:35:36;10.23;;;6.43;;
29958;SDS011;16815;51.100;6.516;2023-04-03T06:38:03;8.50;;;5.97;;
29958;SDS011;16815;51.100;6.516;2023-04-03T06:40:34;7.70;;;5.50;;
29958;SDS011;16815;51.100;6.516;2023-04-03T06:43:00;8.27;;;5.60;;
29958;SDS011;16815;51.100;6.516;2023-04-03T06:45:26;9.73;;;6.13;;
29958;SDS011;16815;51.100;6.516;2023-04-03T06:47:52;6.80;;;5.83;;
29958;SDS011;16815;51.100;6.516;2023-04-03T06:50:19;8.37;;;5.70;;
29958;SDS011;16815;51.100;6.516;2023-04-03T06:52:45;7.97;;;5.53;;
29958;SDS011;16815;51.100;6.516;2023-04-03T06:55:11;6.27;;;4.80;;
29958;SDS011;16815;51.100;6.516;2023-04-03T06:57:37;8.80;;;5.20;;
29958;SDS011;16815;51.100;6.516;2023-04-03T07:00:04;7.27;;;5.10;;
29958;SDS011;16815;51.100;6.516;2023-04-03T07:02:30;7.03;;;4.80;;
29958;SDS011;16815;51.100;6.516;2023-04-03T07:04:56;5.87;;;4.70;;
29958;SDS011;16815;51.100;6.516;2023-04-03T07:07:22;9.47;;;5.13;;
29958;SDS011;16815;51.100;6.516;2023-04-03T07:09:48;6.50;;;5.60;;
29958;SDS011;16815;51.100;6.516;2023-04-03T07:12:14;7.67;;;5.43;;
29958;SDS011;16815;51.100;6.516;2023-04-03T07:14:41;11.30;;;5.67;;
29958;SDS011;16815;51.100;6.516;2023-04-03T07:17:07;7.10;;;4.93;;
29958;SDS011;16815;51.100;6.516;2023-04-03T07:19:33;5.13;;;4.07;;
29958;SDS011;16815;51.100;6.516;2023-04-03T07:21:59;8.20;;;4.43;;
29958;SDS011;16815;51.100;6.516;2023-04-03T07:24:25;9.07;;;3.63;;
29958;SDS011;16815;51.100;6.516;2023-04-03T07:26:51;5.83;;;3.40;;
29958;SDS011;16815;51.100;6.516;2023-04-03T07:29:18;5.60;;;3.57;;
29958;SDS011;16815;51.100;6.516;2023-04-03T07:31:45;6.03;;;3.30;;
29958;SDS011;16815;51.100;6.516;2023-04-03T07:34:11;5.10;;;3.57;;
29958;SDS011;16815;51.100;6.516;2023-04-03T07:36:36;6.13;;;3.77;;
29958;SDS011;16815;51.100;6.516;2023-04-03T07:39:03;6.73;;;2.80;;
29958;SDS011;16815;51.100;6.516;2023-04-03T07:41:29;7.07;;;3.40;;
29958;SDS011;16815;51.100;6.516;2023-04-03T07:43:55;3.80;;;2.57;;
29958;SDS011;16815;51.100;6.516;2023-04-03T07:46:21;4.23;;;3.40;;
29958;SDS011;16815;51.100;6.516;2023-04-03T07:48:47;5.00;;;2.60;;
29958;SDS011;16815;51.100;6.516;2023-04-03T07:51:13;5.23;;;2.73;;
29958;SDS011;16815;51.100;6.516;2023-04-03T07:53:39;4.63;;;2.63;;
29958;SDS011;16815;51.100;6.516;2023-04-03T07:56:06;5.33;;;2.63;;
29958;SDS011;16815;51.100;6.516;2023-04-03T07:58:32;5.23;;;2.90;;
29958;SDS011;16815;51.100;6.516;2023-04-03T08:00:58;2.67;;;2.20;;
29958;SDS011;16815;51.100;6.516;2023-04-03T08:03:24;5.67;;;2.80;;
29958;SDS011;16815;51.100;6.516;2023-04-03T08:05:50;4.53;;;2.70;;
29958;SDS011;16815;51.100;6.516;2023-04-03T08:08:19;3.60;;;2.50;;
29958;SDS011;16815;51.100;6.516;2023-04-03T08:10:50;4.03;;;2.57;;
29958;SDS011;16815;51.100;6.516;2023-04-03T08:13:16;4.30;;;2.50;;
29958;SDS011;16815;51.100;6.516;2023-04-03T08:15:42;4.73;;;2.50;;
29958;SDS011;16815;51.100;6.516;2023-04-03T08:18:08;4.13;;;2.50;;
29958;SDS011;16815;51.100;6.516;2023-04-03T08:20:34;4.93;;;2.70;;
29958;SDS011;16815;51.100;6.516;2023-04-03T08:23:01;6.00;;;2.57;;
29958;SDS011;16815;51.100;6.516;2023-04-03T08:25:26;4.00;;;2.43;;
29958;SDS011;16815;51.100;6.516;2023-04-03T08:27:54;4.33;;;2.30;;
29958;SDS011;16815;51.100;6.516;2023-04-03T08:30:20;6.00;;;2.70;;
29958;SDS011;16815;51.100;6.516;2023-04-03T08:32:46;3.67;;;2.90;;
29958;SDS011;16815;51.100;6.516;2023-04-03T08:35:12;5.87;;;2.60;;
29958;SDS011;16815;51.100;6.516;2023-04-03T08:37:39;4.30;;;2.40;;
29958;SDS011;16815;51.100;6.516;2023-04-03T08:40:05;2.90;;;2.27;;
29958;SDS011;16815;51.100;6.516;2023-04-03T08:45:26;5.77;;;2.43;;
29958;SDS011;16815;51.100;6.516;2023-04-03T08:47:56;4.97;;;2.47;;
29958;SDS011;16815;51.100;6.516;2023-04-03T08:50:26;6.90;;;2.50;;
29958;SDS011;16815;51.100;6.516;2023-04-03T08:52:57;6.80;;;3.07;;
29958;SDS011;16815;51.100;6.516;2023-04-03T08:55:40;4.40;;;2.30;;
29958;SDS011;16815;51.100;6.516;2023-04-03T09:00:50;4.30;;;2.37;;
29958;SDS011;16815;51.100;6.516;2023-04-03T09:03:18;2.90;;;2.00;;
29958;SDS011;16815;51.100;6.516;2023-04-03T09:05:47;3.43;;;2.10;;
29958;SDS011;16815;51.100;6.516;2023-04-03T09:08:18;2.70;;;2.00;;
29958;SDS011;16815;51.100;6.516;2023-04-03T09:10:46;3.43;;;2.10;;
29958;SDS011;16815;51.100;6.516;2023-04-03T09:13:13;6.53;;;2.60;;
29958;SDS011;16815;51.100;6.516;2023-04-03T09:15:46;2.57;;;1.80;;
29958;SDS011;16815;51.100;6.516;2023-04-03T09:18:13;3.20;;;1.83;;
29958;SDS011;16815;51.100;6.516;2023-04-03T09:20:53;2.40;;;1.70;;
29958;SDS011;16815;51.100;6.516;2023-04-03T09:26:23;3.57;;;1.90;;
29958;SDS011;16815;51.100;6.516;2023-04-03T09:28:51;4.17;;;2.17;;
29958;SDS011;16815;51.100;6.516;2023-04-03T09:31:23;3.57;;;1.70;;
29958;SDS011;16815;51.100;6.516;2023-04-03T09:33:50;4.80;;;1.97;;
29958;SDS011;16815;51.100;6.516;2023-04-03T09:37:01;3.70;;;1.77;;
29958;SDS011;16815;51.100;6.516;2023-04-03T09:39:26;3.23;;;2.07;;
29958;SDS011;16815;51.100;6.516;2023-04-03T09:42:00;2.83;;;1.67;;
29958;SDS011;16815;51.100;6.516;2023-04-03T09:44:28;3.90;;;1.87;;
29958;SDS011;16815;51.100;6.516;2023-04-03T09:46:54;2.90;;;1.90;;
29958;SDS011;16815;51.100;6.516;2023-04-03T09:49:21;2.40;;;1.60;;
29958;SDS011;16815;51.100;6.516;2023-04-03T09:51:47;4.10;;;1.90;;
29958;SDS011;16815;51.100;6.516;2023-04-03T09:54:33;4.60;;;1.90;;
29958;SDS011;16815;51.100;6.516;2023-04-03T09:57:09;1.93;;;1.67;;
29958;SDS011;16815;51.100;6.516;2023-04-03T09:59:43;2.23;;;2.00;;
29958;SDS011;16815;51.100;6.516;2023-04-03T10:04:41;2.23;;;1.80;;
29958;SDS011;16815;51.100;6.516;2023-04-03T10:07:27;3.10;;;1.90;;
29958;SDS011;16815;51.100;6.516;2023-04-03T10:09:54;3.97;;;1.90;;
29958;SDS011;16815;51.100;6.516;2023-04-03T10:12:21;2.20;;;1.80;;
29958;SDS011;16815;51.100;6.516;2023-04-03T10:17:35;2.80;;;1.87;;
29958;SDS011;16815;51.100;6.516;2023-04-03T10:25:33;3.37;;;1.97;;
29958;SDS011;16815;51.100;6.516;2023-04-03T10:33:06;3.53;;;1.77;;
29958;SDS011;16815;51.100;6.516;2023-04-03T10:35:39;4.20;;;1.70;;
29958;SDS011;16815;51.100;6.516;2023-04-03T10:38:09;3.60;;;1.93;;
29958;SDS011;16815;51.100;6.516;2023-04-03T10:46:15;3.40;;;1.83;;
29958;SDS011;16815;51.100;6.516;2023-04-03T10:54:01;3.40;;;1.60;;
29958;SDS011;16815;51.100;6.516;2023-04-03T10:56:36;2.70;;;2.10;;
29958;SDS011;16815;51.100;6.516;2023-04-03T10:59:17;3.30;;;1.80;;
29958;SDS011;16815;51.100;6.516;2023-04-03T11:01:45;2.73;;;1.60;;
29958;SDS011;16815;51.100;6.516;2023-04-03T11:04:12;4.13;;;1.90;;
29958;SDS011;16815;51.100;6.516;2023-04-03T11:06:56;2.13;;;1.80;;
29958;SDS011;16815;51.100;6.516;2023-04-03T11:09:25;3.17;;;1.70;;
29958;SDS011;16815;51.100;6.516;2023-04-03T11:12:02;2.07;;;1.50;;
29958;SDS011;16815;51.100;6.516;2023-04-03T11:14:30;2.47;;;1.60;;
29958;SDS011;16815;51.100;6.516;2023-04-03T11:19:36;2.17;;;1.60;;
29958;SDS011;16815;51.100;6.516;2023-04-03T11:22:08;2.80;;;1.73;;
29958;SDS011;16815;51.100;6.516;2023-04-03T11:24:36;2.60;;;1.70;;
29958;SDS011;16815;51.100;6.516;2023-04-03T11:27:03;2.07;;;1.80;;
29958;SDS011;16815;51.100;6.516;2023-04-03T11:29:32;5.10;;;2.17;;
29958;SDS011;16815;51.100;6.516;2023-04-03T11:34:37;3.53;;;2.30;;
29958;SDS011;16815;51.100;6.516;2023-04-03T11:37:10;2.23;;;1.80;;
29958;SDS011;16815;51.100;6.516;2023-04-03T11:39:37;2.67;;;1.40;;
29958;SDS011;16815;51.100;6.516;2023-04-03T11:42:13;1.83;;;1.70;;
29958;SDS011;16815;51.100;6.516;2023-04-03T11:44:40;4.63;;;2.23;;
29958;SDS011;16815;51.100;6.516;2023-04-03T11:47:07;1.60;;;1.50;;
29958;SDS011;16815;51.100;6.516;2023-04-03T11:58:02;2.30;;;2.00;;
29958;SDS011;16815;51.100;6.516;2023-04-03T12:08:28;1.87;;;1.63;;
29958;SDS011;16815;51.100;6.516;2023-04-03T12:13:37;2.53;;;1.57;;
29958;SDS011;16815;51.100;6.516;2023-04-03T12:16:05;2.77;;;1.67;;
29958;SDS011;16815;51.100;6.516;2023-04-03T12:18:37;1.63;;;1.50;;
29958;SDS011;16815;51.100;6.516;2023-04-03T12:21:05;1.93;;;1.47;;
29958;SDS011;16815;51.100;6.516;2023-04-03T12:23:32;2.53;;;1.60;;
29958;SDS011;16815;51.100;6.516;2023-04-03T12:26:02;2.53;;;1.47;;
29958;SDS011;16815;51.100;6.516;2023-04-03T12:28:29;3.53;;;1.60;;
29958;SDS011;16815;51.100;6.516;2023-04-03T12:30:57;2.17;;;1.67;;
29958;SDS011;16815;51.100;6.516;2023-04-03T12:33:33;2.30;;;1.63;;
29958;SDS011;16815;51.100;6.516;2023-04-03T12:36:10;2.90;;;1.77;;
29958;SDS011;16815;51.100;6.516;2023-04-03T12:38:46;3.97;;;1.60;;
29958;SDS011;16815;51.100;6.516;2023-04-03T12:41:21;1.57;;;1.43;;
29958;SDS011;16815;51.100;6.516;2023-04-03T12:43:53;3.17;;;1.80;;
29958;SDS011;16815;51.100;6.516;2023-04-03T12:46:22;2.77;;;1.67;;
29958;SDS011;16815;51.100;6.516;2023-04-03T12:48:56;2.80;;;1.57;;
29958;SDS011;16815;51.100;6.516;2023-04-03T12:53:49;2.73;;;1.57;;
29958;SDS011;16815;51.100;6.516;2023-04-03T12:56:30;1.97;;;1.60;;
29958;SDS011;16815;51.100;6.516;2023-04-03T12:59:16;1.73;;;1.50;;
29958;SDS011;16815;51.100;6.516;2023-04-03T13:01:44;4.90;;;1.83;;
29958;SDS011;16815;51.100;6.516;2023-04-03T13:04:18;1.90;;;1.40;;
29958;SDS011;16815;51.100;6.516;2023-04-03T13:06:44;2.13;;;1.40;;
29958;SDS011;16815;51.100;6.516;2023-04-03T13:09:21;1.97;;;1.30;;
29958;SDS011;16815;51.100;6.516;2023-04-03T13:11:47;2.73;;;1.83;;
29958;SDS011;16815;51.100;6.516;2023-04-03T13:14:18;2.40;;;1.57;;
29958;SDS011;16815;51.100;6.516;2023-04-03T13:17:05;3.10;;;1.47;;
29958;SDS011;16815;51.100;6.516;2023-04-03T13:19:32;2.73;;;1.90;;
29958;SDS011;16815;51.100;6.516;2023-04-03T13:22:02;2.47;;;1.30;;
29958;SDS011;16815;51.100;6.516;2023-04-03T13:24:29;3.40;;;1.40;;
29958;SDS011;16815;51.100;6.516;2023-04-03T13:26:56;1.93;;;1.50;;
29958;SDS011;16815;51.100;6.516;2023-04-03T13:29:24;2.17;;;1.20;;
29958;SDS011;16815;51.100;6.516;2023-04-03T13:31:52;3.20;;;1.50;;
29958;SDS011;16815;51.100;6.516;2023-04-03T13:34:19;3.37;;;1.60;;
29958;SDS011;16815;51.100;6.516;2023-04-03T13:36:55;1.47;;;1.37;;
29958;SDS011;16815;51.100;6.516;2023-04-03T13:39:23;1.60;;;1.50;;
29958;SDS011;16815;51.100;6.516;2023-04-03T13:41:53;2.63;;;1.57;;
29958;SDS011;16815;51.100;6.516;2023-04-03T13:49:31;2.30;;;1.57;;
29958;SDS011;16815;51.100;6.516;2023-04-03T13:51:57;2.17;;;1.50;;
29958;SDS011;16815;51.100;6.516;2023-04-03T13:54:24;1.77;;;1.47;;
29958;SDS011;16815;51.100;6.516;2023-04-03T13:56:54;2.33;;;1.87;;
29958;SDS011;16815;51.100;6.516;2023-04-03T13:59:29;1.70;;;1.60;;
29958;SDS011;16815;51.100;6.516;2023-04-03T14:04:23;2.27;;;1.50;;
29958;SDS011;16815;51.100;6.516;2023-04-03T14:06:49;2.97;;;1.60;;
29958;SDS011;16815;51.100;6.516;2023-04-03T14:09:17;1.70;;;1.60;;
29958;SDS011;16815;51.100;6.516;2023-04-03T14:11:43;3.83;;;1.77;;
29958;SDS011;16815;51.100;6.516;2023-04-03T14:14:17;3.93;;;1.70;;
29958;SDS011;16815;51.100;6.516;2023-04-03T14:16:46;3.57;;;1.60;;
29958;SDS011;16815;51.100;6.516;2023-04-03T14:19:23;3.70;;;1.50;;
29958;SDS011;16815;51.100;6.516;2023-04-03T14:21:50;2.47;;;1.77;;
29958;SDS011;16815;51.100;6.516;2023-04-03T14:24:17;3.53;;;1.70;;
29958;SDS011;16815;51.100;6.516;2023-04-03T14:26:44;2.13;;;1.73;;
29958;SDS011;16815;51.100;6.516;2023-04-03T14:29:10;5.03;;;1.97;;
29958;SDS011;16815;51.100;6.516;2023-04-03T14:31:36;1.70;;;1.60;;
29958;SDS011;16815;51.100;6.516;2023-04-03T14:34:02;1.83;;;1.60;;
29958;SDS011;16815;51.100;6.516;2023-04-03T14:36:28;3.90;;;1.70;;
29958;SDS011;16815;51.100;6.516;2023-04-03T14:38:55;2.27;;;1.60;;
29958;SDS011;16815;51.100;6.516;2023-04-03T14:41:22;3.77;;;1.70;;
29958;SDS011;16815;51.100;6.516;2023-04-03T14:43:48;4.50;;;1.90;;
29958;SDS011;16815;51.100;6.516;2023-04-03T14:48:53;1.60;;;1.50;;
29958;SDS011;16815;51.100;6.516;2023-04-03T14:51:19;2.70;;;2.03;;
29958;SDS011;16815;51.100;6.516;2023-04-03T14:53:45;3.03;;;1.70;;
29958;SDS011;16815;51.100;6.516;2023-04-03T14:56:15;2.40;;;1.70;;
29958;SDS011;16815;51.100;6.516;2023-04-03T14:58:42;1.50;;;1.40;;
29958;SDS011;16815;51.100;6.516;2023-04-03T15:01:11;4.50;;;2.00;;
29958;SDS011;16815;51.100;6.516;2023-04-03T15:03:40;2.13;;;1.90;;
29958;SDS011;16815;51.100;6.516;2023-04-03T15:06:06;4.10;;;2.10;;
29958;SDS011;16815;51.100;6.516;2023-04-03T15:08:31;5.23;;;2.03;;
29958;SDS011;16815;51.100;6.516;2023-04-03T15:10:58;1.97;;;1.63;;
29958;SDS011;16815;51.100;6.516;2023-04-03T15:13:24;1.57;;;1.47;;
29958;SDS011;16815;51.100;6.516;2023-04-03T15:15:50;2.77;;;1.87;;
29958;SDS011;16815;51.100;6.516;2023-04-03T15:18:20;2.20;;;1.60;;
29958;SDS011;16815;51.100;6.516;2023-04-03T15:20:47;1.93;;;1.73;;
29958;SDS011;16815;51.100;6.516;2023-04-03T15:23:14;2.93;;;1.60;;
29958;SDS011;16815;51.100;6.516;2023-04-03T15:25:41;1.50;;;1.40;;
29958;SDS011;16815;51.100;6.516;2023-04-03T15:28:08;2.50;;;1.90;;
29958;SDS011;16815;51.100;6.516;2023-04-03T15:30:35;2.47;;;1.60;;
29958;SDS011;16815;51.100;6.516;2023-04-03T15:33:02;2.17;;;1.40;;
29958;SDS011;16815;51.100;6.516;2023-04-03T15:35:28;3.63;;;2.10;;
29958;SDS011;16815;51.100;6.516;2023-04-03T15:37:54;1.97;;;1.70;;
29958;SDS011;16815;51.100;6.516;2023-04-03T15:40:20;2.70;;;1.67;;
29958;SDS011;16815;51.100;6.516;2023-04-03T15:42:46;4.00;;;2.20;;
29958;SDS011;16815;51.100;6.516;2023-04-03T15:45:12;2.77;;;1.93;;
29958;SDS011;16815;51.100;6.516;2023-04-03T15:47:38;2.70;;;1.63;;
29958;SDS011;16815;51.100;6.516;2023-04-03T15:50:04;5.53;;;1.70;;
29958;SDS011;16815;51.100;6.516;2023-04-03T15:52:32;1.67;;;1.43;;
29958;SDS011;16815;51.100;6.516;2023-04-03T15:54:58;2.00;;;1.70;;
29958;SDS011;16815;51.100;6.516;2023-04-03T15:57:24;3.30;;;2.20;;
29958;SDS011;16815;51.100;6.516;2023-04-03T15:59:51;2.13;;;1.80;;
29958;SDS011;16815;51.100;6.516;2023-04-03T16:02:17;4.33;;;1.90;;
29958;SDS011;16815;51.100;6.516;2023-04-03T16:04:43;4.63;;;2.37;;
29958;SDS011;16815;51.100;6.516;2023-04-03T16:07:09;3.87;;;1.73;;
29958;SDS011;16815;51.100;6.516;2023-04-03T16:09:36;2.83;;;1.67;;